createdAt,value
2023-01-03T00:01:45.396Z,5.78
2023-01-03T00:04:13.141Z,7.40
2023-01-03T00:06:48.582Z,6.47
2023-01-03T00:09:18.374Z,6.88
2023-01-03T00:12:11.667Z,6.93
2023-01-03T00:14:41.560Z,6.70
2023-01-03T00:17:10.065Z,6.00
2023-01-03T00:19:40.220Z,5.70
2023-01-03T00:22:07.458Z,5.80
2023-01-03T00:24:34.368Z,5.53
2023-01-03T00:27:01.262Z,6.00
2023-01-03T00:29:28.215Z,6.07
2023-01-03T00:31:55.026Z,5.15
2023-01-03T00:34:21.869Z,4.55
2023-01-03T00:36:48.868Z,4.97
2023-01-03T00:39:15.755Z,5.40
2023-01-03T00:41:42.701Z,4.38
2023-01-03T00:44:09.836Z,4.15
2023-01-03T00:46:37.021Z,4.80
2023-01-03T00:49:04.975Z,3.60
2023-01-03T00:51:34.502Z,3.65
2023-01-03T00:54:03.131Z,3.55
2023-01-03T00:56:35.425Z,3.83
2023-01-03T00:59:02.567Z,3.38
2023-01-03T01:01:46.604Z,3.28
2023-01-03T01:04:23.279Z,3.65
2023-01-03T01:06:52.993Z,4.40
2023-01-03T01:09:23.236Z,4.22
2023-01-03T01:11:51.010Z,4.90
2023-01-03T01:14:20.158Z,4.40
2023-01-03T01:16:52.931Z,3.95
2023-01-03T01:19:24.754Z,4.28
2023-01-03T01:21:52.029Z,4.43
2023-01-03T01:24:18.903Z,4.43
2023-01-03T01:26:46.383Z,4.60
2023-01-03T01:29:14.193Z,4.90
2023-01-03T01:31:41.728Z,5.57
2023-01-03T01:34:20.384Z,5.80
2023-01-03T01:36:48.124Z,4.78
2023-01-03T01:39:20.595Z,5.03
2023-01-03T01:42:08.744Z,3.88
2023-01-03T01:44:52.550Z,6.03
2023-01-03T01:47:34.800Z,5.22
2023-01-03T01:50:15.512Z,6.03
2023-01-03T01:52:54.387Z,6.40
2023-01-03T01:55:25.255Z,5.05
2023-01-03T01:57:52.918Z,5.35
2023-01-03T02:00:19.995Z,5.00
2023-01-03T02:02:49.592Z,5.60
2023-01-03T02:05:17.960Z,5.30
2023-01-03T02:07:47.928Z,5.32
2023-01-03T02:10:14.774Z,4.82
2023-01-03T02:13:04.984Z,4.57
2023-01-03T02:16:12.191Z,4.68
2023-01-03T02:18:46.818Z,4.15
2023-01-03T02:21:19.980Z,5.00
2023-01-03T02:24:02.175Z,4.82
2023-01-03T02:26:50.437Z,5.22
2023-01-03T02:29:25.737Z,5.40
2023-01-03T02:32:04.185Z,4.88
2023-01-03T12:32:12.671Z,1.73
2023-01-03T12:34:54.300Z,1.75
2023-01-03T12:37:24.362Z,2.08
2023-01-03T12:40:05.660Z,1.95
2023-01-03T12:42:38.219Z,1.65
2023-01-03T12:45:07.873Z,2.80
2023-01-03T12:47:56.918Z,1.83
2023-01-03T12:50:33.396Z,1.75
2023-01-03T12:53:14.099Z,1.48
2023-01-03T12:56:05.029Z,1.98
2023-01-03T12:58:38.867Z,1.77
2023-01-03T13:01:16.065Z,1.80
2023-01-03T13:03:48.641Z,1.63
2023-01-03T13:06:26.103Z,1.70
2023-01-03T13:09:04.741Z,1.63
2023-01-03T13:12:01.344Z,1.58
2023-01-03T13:14:29.121Z,1.55
2023-01-03T13:17:04.871Z,1.60
2023-01-03T13:19:37.495Z,1.77
2023-01-03T13:22:06.736Z,1.80
2023-01-03T13:24:44.732Z,1.42
2023-01-03T13:27:17.483Z,2.60
2023-01-03T13:29:50.510Z,1.70
2023-01-03T13:34:44.958Z,1.38
2023-01-03T13:37:17.846Z,2.00
2023-01-03T13:39:58.055Z,1.85
2023-01-03T13:42:36.596Z,2.05
2023-01-03T13:45:15.330Z,6.38
2023-01-03T13:47:43.030Z,2.47
2023-01-03T13:50:24.962Z,3.58
2023-01-03T13:53:10.749Z,4.22
2023-01-03T13:55:58.465Z,2.35
2023-01-03T13:58:28.252Z,2.22
2023-01-03T14:01:05.277Z,2.53
2023-01-03T14:03:44.727Z,3.00
2023-01-03T14:06:43.655Z,1.50
2023-01-03T14:09:41.133Z,1.92
2023-01-03T14:12:19.584Z,1.50
2023-01-03T14:14:52.410Z,1.88
2023-01-03T14:17:28.258Z,1.30
2023-01-03T14:19:58.087Z,1.95
2023-01-03T14:22:35.094Z,1.88
2023-01-03T14:25:01.966Z,1.30
2023-01-03T14:27:46.773Z,2.03
2023-01-03T14:30:21.544Z,1.92
2023-01-03T14:32:48.448Z,2.20
2023-01-03T14:35:39.185Z,1.70
2023-01-03T14:38:07.591Z,3.08
2023-01-03T14:40:34.911Z,2.95
2023-01-03T14:43:05.323Z,1.27
2023-01-03T14:45:32.136Z,6.07
2023-01-03T14:47:59.089Z,2.90
2023-01-03T14:50:28.473Z,7.30
2023-01-03T14:52:58.069Z,3.88
2023-01-03T14:55:30.941Z,4.82
2023-01-03T14:57:58.752Z,2.85
2023-01-03T15:00:32.935Z,2.95
2023-01-03T15:03:01.479Z,2.10
2023-01-03T15:05:34.199Z,2.15
2023-01-03T15:08:09.504Z,3.90
2023-01-03T15:10:47.901Z,6.25
2023-01-03T15:13:28.819Z,2.40
2023-01-03T15:16:00.743Z,2.65
2023-01-03T15:18:31.054Z,2.13
2023-01-03T15:20:59.899Z,3.40
2023-01-03T15:23:29.790Z,4.25
2023-01-03T15:25:59.727Z,11.82
2023-01-03T15:28:32.366Z,11.68
2023-01-03T15:31:14.418Z,4.97
2023-01-03T15:33:41.707Z,5.78
2023-01-03T15:36:18.447Z,12.82
2023-01-03T15:38:47.565Z,11.45
2023-01-03T15:42:12.348Z,8.18
2023-01-03T15:44:38.665Z,8.93
2023-01-03T15:47:08.639Z,8.88
2023-01-03T15:49:48.309Z,9.48
2023-01-03T15:52:15.978Z,13.75
2023-01-03T15:54:44.298Z,7.38
2023-01-03T15:57:20.598Z,14.80
2023-01-03T15:59:57.001Z,13.38
2023-01-03T16:02:26.040Z,10.95
2023-01-03T16:04:53.713Z,21.55
2023-01-03T16:07:21.110Z,5.38
2023-01-03T16:09:48.054Z,5.43
2023-01-03T16:12:32.679Z,4.25
2023-01-03T16:14:59.827Z,3.42
2023-01-03T16:17:28.524Z,2.80
2023-01-03T16:19:57.865Z,2.78
2023-01-03T16:22:34.406Z,4.18
2023-01-03T16:25:04.295Z,5.18
2023-01-03T16:27:31.081Z,4.60
2023-01-03T16:29:58.067Z,6.35
2023-01-03T16:32:29.338Z,5.95
2023-01-03T16:35:16.238Z,5.53
2023-01-03T16:37:43.982Z,4.15
2023-01-03T16:40:16.381Z,7.07
2023-01-03T16:42:43.377Z,3.97
2023-01-03T16:45:10.893Z,6.72
2023-01-03T16:47:38.051Z,9.93
2023-01-03T16:50:07.505Z,8.57
2023-01-03T16:52:39.738Z,5.20
2023-01-03T16:55:18.337Z,8.77
2023-01-03T16:57:50.199Z,5.90
2023-01-03T17:00:26.469Z,4.57
2023-01-03T17:02:56.832Z,8.10
2023-01-03T17:05:24.511Z,4.40
2023-01-03T17:07:53.439Z,3.75
2023-01-03T17:10:36.545Z,6.60
2023-01-03T17:13:10.418Z,4.50
2023-01-03T17:15:39.837Z,3.83
2023-01-03T17:18:06.929Z,2.80
2023-01-03T17:20:33.806Z,4.82
2023-01-03T17:23:00.888Z,3.58
2023-01-03T17:25:27.854Z,6.40
2023-01-03T17:27:59.302Z,7.05
2023-01-03T17:30:28.290Z,7.07
2023-01-03T17:32:55.647Z,5.18
2023-01-03T17:35:22.717Z,4.47
2023-01-03T17:38:24.068Z,4.25
2023-01-03T17:40:38.037Z,5.40
2023-01-03T17:43:04.834Z,5.15
2023-01-03T17:45:50.753Z,11.10
2023-01-03T17:48:36.445Z,8.27
2023-01-03T17:51:03.341Z,7.50
2023-01-03T17:53:30.308Z,5.25
2023-01-03T17:56:00.413Z,3.00
2023-01-03T17:58:35.636Z,6.43
2023-01-03T18:01:03.197Z,8.43
2023-01-03T18:03:30.906Z,16.73
2023-01-03T18:05:58.505Z,7.85
2023-01-03T18:08:25.491Z,6.15
2023-01-03T18:10:55.797Z,6.60
2023-01-03T18:13:28.137Z,6.85
2023-01-03T18:15:55.761Z,2.10
2023-01-03T18:18:24.602Z,3.53
2023-01-03T18:20:52.415Z,2.70
2023-01-03T18:23:33.198Z,2.80
2023-01-03T18:26:05.355Z,4.07
2023-01-03T18:28:32.477Z,3.87
2023-01-03T18:30:59.595Z,2.42
2023-01-03T18:33:26.673Z,2.28
2023-01-03T18:35:53.984Z,2.33
2023-01-03T18:38:41.577Z,4.85
2023-01-03T18:41:18.450Z,2.35
2023-01-03T18:43:45.352Z,1.60
2023-01-03T18:46:16.186Z,3.13
2023-01-03T18:48:43.261Z,5.43
2023-01-03T18:51:15.582Z,11.63
2023-01-03T18:53:44.582Z,10.10
2023-01-03T18:56:36.112Z,4.63
2023-01-03T18:59:05.764Z,12.90
2023-01-03T19:01:33.551Z,7.93
2023-01-03T19:04:00.669Z,5.15
2023-01-03T19:06:34.053Z,3.45
2023-01-03T19:09:04.036Z,3.30
2023-01-03T19:11:33.670Z,2.65
2023-01-03T19:14:02.613Z,4.70
2023-01-03T19:16:32.431Z,2.50
2023-01-03T19:19:00.418Z,2.92
2023-01-03T19:21:39.239Z,5.22
2023-01-03T19:24:47.313Z,3.60
2023-01-03T19:27:18.016Z,3.60
2023-01-03T19:29:45.356Z,2.40
2023-01-03T19:32:38.648Z,6.43
2023-01-03T19:35:14.763Z,3.53
2023-01-03T19:40:27.556Z,1.70
2023-01-03T19:42:56.285Z,3.50
2023-01-03T19:45:23.507Z,2.05
2023-01-03T19:47:50.487Z,2.47
2023-01-03T19:50:22.203Z,1.95
2023-01-03T19:52:49.748Z,2.35
2023-01-03T19:55:17.524Z,1.83
2023-01-03T19:57:48.397Z,1.88
2023-01-03T20:00:22.916Z,2.83
2023-01-03T20:02:52.702Z,1.70
2023-01-03T20:05:24.394Z,2.30
2023-01-03T20:07:51.711Z,2.03
2023-01-03T20:10:22.653Z,1.88
2023-01-03T20:12:53.636Z,2.08
2023-01-03T20:15:29.205Z,2.88
2023-01-03T20:17:57.376Z,2.22
2023-01-03T20:20:28.033Z,1.52
2023-01-03T20:23:06.372Z,1.73
2023-01-03T20:25:35.336Z,1.50
2023-01-03T20:28:02.457Z,1.83
2023-01-03T20:30:31.161Z,2.40
2023-01-03T20:32:58.398Z,2.15
2023-01-03T20:36:08.503Z,2.13
2023-01-03T20:38:16.903Z,1.90
2023-01-03T20:40:43.842Z,1.63
2023-01-03T20:43:13.914Z,2.05
2023-01-03T20:45:43.687Z,2.10
2023-01-03T20:48:24.711Z,1.73
2023-01-03T20:50:52.731Z,1.83
2023-01-03T20:53:24.741Z,4.43
2023-01-03T20:55:53.168Z,2.80
2023-01-03T20:58:27.900Z,6.95
2023-01-03T21:01:02.088Z,4.10
2023-01-03T21:03:32.583Z,3.70
2023-01-03T21:05:59.535Z,2.00
2023-01-03T21:08:45.106Z,1.50
2023-01-03T21:11:12.283Z,1.65
2023-01-03T21:13:39.467Z,2.42
2023-01-03T21:16:38.136Z,1.60
2023-01-03T21:19:20.250Z,2.00
2023-01-03T21:21:52.930Z,1.95
2023-01-03T21:24:21.934Z,1.65
2023-01-03T21:26:48.991Z,1.70
2023-01-03T21:29:16.239Z,1.75
2023-01-03T21:31:44.109Z,1.60
2023-01-03T21:34:19.893Z,2.53
2023-01-03T21:36:47.609Z,1.70
2023-01-03T21:39:14.494Z,1.83
2023-01-03T21:42:00.123Z,2.08
2023-01-03T21:44:27.035Z,2.13
2023-01-03T21:46:53.880Z,1.70
2023-01-03T21:49:21.167Z,1.30
2023-01-03T21:51:48.566Z,1.90
2023-01-03T21:54:15.479Z,1.52
2023-01-03T21:56:46.620Z,1.60
2023-01-03T21:59:17.258Z,2.50
2023-01-03T22:02:10.787Z,1.40
2023-01-03T22:04:44.062Z,2.00
2023-01-03T22:07:11.389Z,1.20
2023-01-03T22:09:57.350Z,2.00
2023-01-03T22:12:24.209Z,1.85
2023-01-03T22:14:51.008Z,1.88
2023-01-03T22:17:17.836Z,2.60
2023-01-03T22:19:44.838Z,1.35
2023-01-03T22:22:11.680Z,1.95
2023-01-03T22:24:39.249Z,2.28
2023-01-03T22:27:06.425Z,2.10
2023-01-03T22:29:33.755Z,1.60
2023-01-03T22:32:00.663Z,1.63
2023-01-03T22:34:27.685Z,1.90
2023-01-03T22:36:54.831Z,1.70
2023-01-03T22:39:21.660Z,1.50
2023-01-03T22:41:52.377Z,1.48
2023-01-03T22:44:19.524Z,1.65
2023-01-03T22:46:46.447Z,1.80
2023-01-03T22:49:13.333Z,1.58
2023-01-03T22:51:43.539Z,1.83
2023-01-03T22:54:10.924Z,2.30
2023-01-03T22:56:40.564Z,1.73
2023-01-03T22:59:12.564Z,1.45
2023-01-03T23:01:40.823Z,2.10
2023-01-03T23:04:15.399Z,1.60
2023-01-03T23:06:42.796Z,1.92
2023-01-03T23:09:12.021Z,2.45
2023-01-03T23:12:00.869Z,2.20
2023-01-03T23:14:34.830Z,1.67
2023-01-03T23:17:22.588Z,1.80
2023-01-03T23:20:16.581Z,1.70
2023-01-03T23:22:57.424Z,1.83
2023-01-03T23:25:26.429Z,1.65
2023-01-03T23:27:53.231Z,1.70
2023-01-03T23:30:20.152Z,1.95
2023-01-03T23:32:47.000Z,1.60
2023-01-03T23:35:14.053Z,1.63
2023-01-03T23:37:40.869Z,2.05
2023-01-03T23:40:08.910Z,1.90
2023-01-03T23:42:35.794Z,2.42
2023-01-03T23:45:02.825Z,1.80
2023-01-03T23:47:29.608Z,2.30
2023-01-03T23:49:56.431Z,1.83
2023-01-03T23:52:23.387Z,1.80
2023-01-03T23:54:54.643Z,1.55
2023-01-03T23:57:24.827Z,2.90
2023-01-03T23:59:52.194Z,2.83
